Time;durP1;ratioP1;P1;durP2;ratioP2;P2;SDS_P1;SDS_P2;PMS_P1;PMS_P2;Temp;Humidity;BMP_temperature;BMP_pressure;BME280_temperature;BME280_humidity;BME280_pressure;Samples;Min_cycle;Max_cycle;Signal;HPM_P1;HPM_P2
2023/09/11 09:44:39;;;;;;;4.25;2.15;;;29.50;99.90;;;;;;3792036;23;20696;-72
2023/09/11 09:47:10;;;;;;;5.68;2.58;;;29.50;99.90;;;;;;4955481;28;20231;-72
2023/09/11 09:49:46;;;;;;;7.20;2.38;;;29.40;99.90;;;;;;4958485;28;20555;-72
2023/09/11 09:52:13;;;;;;;3.58;2.28;;;29.20;99.90;;;;;;4944083;29;20319;-72
2023/09/11 09:54:47;;;;;;;2.92;2.25;;;29.30;99.90;;;;;;4949047;29;20200;-72
2023/09/11 09:57:16;;;;;;;4.35;2.55;;;29.30;99.90;;;;;;4952836;29;20290;-73
2023/09/11 09:59:47;;;;;;;3.05;1.95;;;29.10;99.90;;;;;;4918511;29;20249;-72
2023/09/11 10:02:15;;;;;;;3.92;2.05;;;29.10;99.90;;;;;;4918370;29;20234;-72
2023/09/11 10:04:41;;;;;;;6.07;2.08;;;29.10;99.90;;;;;;4918530;29;20233;-72
2023/09/11 10:07:08;;;;;;;4.88;2.40;;;29.10;99.90;;;;;;4917944;29;20648;-72
2023/09/11 10:09:35;;;;;;;5.43;2.15;;;29.20;99.90;;;;;;4918187;29;20241;-72
2023/09/11 10:12:04;;;;;;;3.85;2.10;;;29.10;99.90;;;;;;4918166;29;20226;-73
2023/09/11 10:14:32;;;;;;;3.88;2.40;;;29.10;99.90;;;;;;4917399;29;20245;-72
2023/09/11 10:17:01;;;;;;;4.63;2.42;;;29.00;99.90;;;;;;4918005;29;20210;-72
2023/09/11 10:19:31;;;;;;;4.25;2.20;;;29.00;99.90;;;;;;4917898;29;20220;-72
2023/09/11 10:21:59;;;;;;;4.25;2.30;;;29.10;99.90;;;;;;4917811;29;20574;-72
2023/09/11 10:24:27;;;;;;;7.60;2.33;;;29.30;99.90;;;;;;4917840;29;20206;-72
2023/09/11 10:26:57;;;;;;;3.75;2.03;;;29.50;99.90;;;;;;4917880;29;20272;-72
2023/09/11 10:29:44;;;;;;;4.13;2.33;;;29.50;99.90;;;;;;4917889;29;20256;-74
2023/09/11 10:32:19;;;;;;;6.40;3.40;;;29.50;99.90;;;;;;4917531;29;20241;-72
2023/09/11 10:34:48;;;;;;;5.22;2.38;;;29.40;99.90;;;;;;4917881;29;20244;-75
2023/09/11 10:37:16;;;;;;;4.55;2.05;;;29.50;99.90;;;;;;4917918;29;20241;-72
2023/09/11 10:39:44;;;;;;;4.22;2.25;;;29.50;99.90;;;;;;4917965;29;20296;-72
2023/09/11 10:42:11;;;;;;;3.50;2.10;;;29.60;99.90;;;;;;4918076;29;20236;-73
2023/09/11 10:44:39;;;;;;;4.32;2.25;;;29.70;99.90;;;;;;4920527;29;20244;-71
2023/09/11 10:47:06;;;;;;;3.08;2.13;;;29.70;99.90;;;;;;4937734;29;20657;-71
2023/09/11 10:49:40;;;;;;;2.67;2.28;;;29.70;99.90;;;;;;4946833;28;20232;-72
2023/09/11 10:52:08;;;;;;;3.47;2.30;;;29.70;99.90;;;;;;4951700;29;20786;-71
2023/09/11 10:54:36;;;;;;;5.50;2.15;;;29.70;99.90;;;;;;4940942;29;20244;-73
2023/09/11 10:57:03;;;;;;;3.75;2.20;;;29.60;99.90;;;;;;4921411;29;20678;-72
2023/09/11 10:59:32;;;;;;;5.95;2.33;;;29.70;99.90;;;;;;4934468;29;20240;-72
2023/09/11 11:01:59;;;;;;;5.35;2.42;;;29.70;99.90;;;;;;4934830;29;20265;-76
2023/09/11 11:04:26;;;;;;;3.83;1.98;;;29.80;99.90;;;;;;4944312;29;20206;-75
2023/09/11 11:07:00;;;;;;;3.63;2.40;;;29.70;99.90;;;;;;4919977;29;20331;-69
2023/09/11 11:09:31;;;;;;;7.18;3.03;;;29.60;99.90;;;;;;4934284;29;20288;-72
2023/09/11 11:11:59;;;;;;;3.50;2.10;;;29.70;99.90;;;;;;4934546;29;20235;-70
2023/09/11 11:14:26;;;;;;;5.25;2.40;;;29.70;99.90;;;;;;4933219;29;20240;-73
2023/09/11 11:17:00;;;;;;;2.72;2.22;;;29.80;99.90;;;;;;4939773;29;20259;-75
2023/09/11 11:19:29;;;;;;;2.85;2.10;;;29.90;99.90;;;;;;4934224;29;20571;-70
2023/09/11 11:21:58;;;;;;;2.85;2.00;;;29.70;99.90;;;;;;4934474;29;20240;-69
2023/09/11 11:24:25;;;;;;;3.67;2.53;;;29.60;99.90;;;;;;4933400;29;20236;-69
2023/09/11 11:26:56;;;;;;;2.80;2.17;;;29.60;99.90;;;;;;4935286;29;20445;-71
2023/09/11 11:29:24;;;;;;;2.92;2.55;;;29.70;99.90;;;;;;4935860;29;21541;-72
2023/09/11 11:31:56;;;;;;;2.90;2.33;;;29.80;99.90;;;;;;4935594;29;20719;-71
2023/09/11 11:34:27;;;;;;;2.72;2.28;;;29.80;99.90;;;;;;4934131;29;20233;-70
2023/09/11 11:36:58;;;;;;;4.28;2.25;;;29.80;99.90;;;;;;4935447;29;20209;-76
2023/09/11 11:39:26;;;;;;;4.50;2.38;;;29.80;99.90;;;;;;4939172;29;20210;-70
2023/09/11 11:41:55;;;;;;;4.55;2.33;;;29.70;99.90;;;;;;4923098;29;20257;-77
2023/09/11 11:44:22;;;;;;;4.07;2.30;;;29.80;99.90;;;;;;4918134;29;20657;-82
2023/09/11 11:46:51;;;;;;;4.53;2.30;;;29.70;99.90;;;;;;4935631;29;20699;-73
2023/09/11 11:49:20;;;;;;;3.72;2.20;;;29.60;99.90;;;;;;4936011;29;20262;-71
2023/09/11 11:51:47;;;;;;;4.50;2.42;;;29.80;99.90;;;;;;4943337;29;20236;-73
2023/09/11 11:54:25;;;;;;;2.95;2.20;;;29.90;99.90;;;;;;4954185;29;20247;-76
2023/09/11 11:56:56;;;;;;;2.88;2.03;;;30.00;99.90;;;;;;4954616;29;20254;-75
2023/09/11 11:59:23;;;;;;;4.95;2.00;;;29.90;99.90;;;;;;4954667;28;20243;-73
2023/09/11 12:01:50;;;;;;;3.88;2.00;;;29.70;99.90;;;;;;4954413;29;20725;-72
2023/09/11 12:04:18;;;;;;;3.05;2.05;;;29.70;99.90;;;;;;4955127;29;20239;-70
2023/09/11 12:06:45;;;;;;;5.25;2.20;;;29.60;99.90;;;;;;4954588;29;20267;-75
2023/09/11 12:09:12;;;;;;;3.63;2.05;;;29.70;99.90;;;;;;4954757;29;20678;-76
2023/09/11 12:11:41;;;;;;;3.92;1.80;;;29.70;99.90;;;;;;4954768;28;20259;-76
2023/09/11 12:14:13;;;;;;;3.55;1.98;;;29.60;99.90;;;;;;4954470;29;20208;-77
2023/09/11 12:16:40;;;;;;;3.70;2.38;;;29.60;99.90;;;;;;4954739;29;20220;-77
2023/09/11 12:19:08;;;;;;;3.13;1.67;;;29.70;99.90;;;;;;4954558;29;20635;-74
2023/09/11 12:21:35;;;;;;;3.30;2.20;;;29.70;99.90;;;;;;4954687;29;20270;-75
2023/09/11 12:24:03;;;;;;;3.10;1.92;;;29.80;99.90;;;;;;4954765;29;20251;-77
2023/09/11 12:26:30;;;;;;;3.15;2.25;;;29.80;99.90;;;;;;4954116;29;20255;-74
2023/09/11 12:28:59;;;;;;;3.22;2.10;;;29.90;99.90;;;;;;4954288;29;20302;-77
2023/09/11 12:31:26;;;;;;;4.40;1.80;;;29.90;99.90;;;;;;4954533;29;20290;-74
2023/09/11 12:33:53;;;;;;;2.85;1.70;;;29.80;99.90;;;;;;4954566;28;20248;-76
2023/09/11 12:36:21;;;;;;;5.00;2.00;;;29.80;99.90;;;;;;4954272;29;20294;-76
2023/09/11 12:38:48;;;;;;;3.95;2.10;;;29.80;99.90;;;;;;4956303;28;20208;-73
2023/09/11 12:41:15;;;;;;;2.28;1.80;;;29.90;99.90;;;;;;4957787;29;20250;-76
2023/09/11 12:43:43;;;;;;;4.15;1.98;;;30.00;99.90;;;;;;4958095;29;20239;-76
2023/09/11 12:46:13;;;;;;;3.55;2.00;;;30.20;99.90;;;;;;4957644;29;20247;-77
2023/09/11 12:48:42;;;;;;;4.03;1.73;;;30.40;99.90;;;;;;4957526;29;20290;-71
2023/09/11 12:51:09;;;;;;;4.28;1.98;;;30.60;99.90;;;;;;4957830;28;20230;-77
2023/09/11 12:53:36;;;;;;;2.58;1.90;;;30.80;99.90;;;;;;4957721;29;20212;-75
2023/09/11 12:56:03;;;;;;;2.67;1.73;;;31.00;99.80;;;;;;4957500;29;20246;-77
2023/09/11 12:58:30;;;;;;;3.78;2.13;;;31.00;99.80;;;;;;4955853;29;20294;-70
2023/09/11 13:00:58;;;;;;;4.20;2.00;;;31.00;99.70;;;;;;4940832;28;20278;-80
2023/09/11 13:03:26;;;;;;;2.83;1.77;;;31.00;99.90;;;;;;4937916;29;20255;-74
2023/09/11 13:05:53;;;;;;;3.38;1.50;;;30.80;99.90;;;;;;4948184;29;20235;-74
2023/09/11 13:08:20;;;;;;;3.05;1.85;;;30.80;99.90;;;;;;4957068;29;20323;-75
2023/09/11 13:10:47;;;;;;;4.47;1.98;;;30.80;99.90;;;;;;4933778;29;20248;-75
2023/09/11 13:13:14;;;;;;;4.45;1.98;;;30.80;99.90;;;;;;4938294;29;20236;-73
2023/09/11 13:15:41;;;;;;;2.10;1.80;;;30.80;99.50;;;;;;4938028;29;20251;-74
2023/09/11 13:18:08;;;;;;;3.83;1.83;;;30.60;99.90;;;;;;4932510;29;20236;-74
2023/09/11 13:20:36;;;;;;;2.67;1.83;;;30.50;99.90;;;;;;4930185;29;20707;-73
2023/09/11 13:23:03;;;;;;;4.10;2.08;;;30.20;99.90;;;;;;4928448;29;20244;-74
2023/09/11 13:25:30;;;;;;;5.25;1.98;;;29.90;99.90;;;;;;4927296;29;20233;-72
2023/09/11 13:27:57;;;;;;;2.20;1.42;;;29.80;99.90;;;;;;4922128;29;20233;-73
2023/09/11 13:30:24;;;;;;;4.47;2.00;;;29.80;99.90;;;;;;4918619;29;20256;-73
2023/09/11 13:32:51;;;;;;;2.47;1.70;;;29.80;99.90;;;;;;4918359;29;20261;-74
2023/09/11 13:35:18;;;;;;;3.60;1.80;;;29.70;99.90;;;;;;4918826;29;20251;-73
2023/09/11 13:37:46;;;;;;;3.80;1.90;;;29.80;99.90;;;;;;4918738;29;20249;-73
2023/09/11 13:40:13;;;;;;;3.83;1.80;;;30.00;99.90;;;;;;4918210;29;20241;-77
2023/09/11 13:42:40;;;;;;;6.80;2.53;;;30.20;99.90;;;;;;4918379;29;20268;-73
2023/09/11 13:45:09;;;;;;;5.40;1.77;;;30.20;99.90;;;;;;4918191;29;20257;-74
2023/09/11 13:47:36;;;;;;;3.80;2.65;;;30.20;99.90;;;;;;4918629;29;20241;-74
2023/09/11 13:50:03;;;;;;;4.75;2.17;;;30.30;99.90;;;;;;4918712;29;20245;-74
2023/09/11 13:52:31;;;;;;;1.75;1.65;;;30.40;99.90;;;;;;4918609;29;20316;-74
2023/09/11 13:54:59;;;;;;;4.20;1.98;;;30.50;99.90;;;;;;4918463;29;20248;-74
2023/09/11 13:57:26;;;;;;;2.70;1.58;;;30.60;99.90;;;;;;4918240;29;20241;-74
2023/09/11 13:59:52;;;;;;;3.45;1.83;;;30.70;99.90;;;;;;4917925;29;20244;-74
2023/09/11 14:02:19;;;;;;;4.10;1.92;;;30.70;99.90;;;;;;4918083;29;20754;-74
2023/09/11 14:04:46;;;;;;;5.15;1.80;;;30.70;99.90;;;;;;4917472;29;20237;-74
2023/09/11 14:07:14;;;;;;;3.17;1.77;;;30.60;99.90;;;;;;4917917;29;20740;-74
2023/09/11 14:09:41;;;;;;;3.05;2.10;;;30.50;99.90;;;;;;4917962;29;20687;-74
2023/09/11 14:12:09;;;;;;;3.92;2.10;;;30.30;99.90;;;;;;4918601;29;20316;-74
2023/09/11 14:14:36;;;;;;;2.65;2.03;;;30.20;99.90;;;;;;4918030;29;20241;-74
2023/09/11 14:17:03;;;;;;;3.33;2.00;;;30.20;99.90;;;;;;4917379;29;20210;-74
2023/09/11 14:19:31;;;;;;;4.90;3.08;;;30.20;99.90;;;;;;4917377;29;20214;-74
2023/09/11 14:21:58;;;;;;;4.05;2.10;;;30.10;99.90;;;;;;4917240;29;20265;-74
2023/09/11 14:24:24;;;;;;;2.72;2.03;;;30.00;99.90;;;;;;4917881;29;20245;-74
2023/09/11 14:26:51;;;;;;;3.35;1.90;;;29.90;99.90;;;;;;4917650;29;20680;-74
2023/09/11 14:29:20;;;;;;;4.13;1.98;;;29.80;99.90;;;;;;4917638;29;20320;-74
2023/09/11 14:31:46;;;;;;;3.40;1.95;;;29.80;99.90;;;;;;4917448;29;20261;-74
2023/09/11 14:34:15;;;;;;;4.80;1.80;;;29.60;99.90;;;;;;4917466;29;20245;-74
2023/09/11 14:36:42;;;;;;;3.03;2.00;;;29.40;99.90;;;;;;4917816;29;20213;-74
2023/09/11 14:39:09;;;;;;;3.13;1.60;;;29.40;99.90;;;;;;4917174;29;20252;-74
2023/09/11 14:41:36;;;;;;;6.47;2.08;;;29.40;99.90;;;;;;4934149;29;20271;-72
2023/09/11 14:44:03;;;;;;;2.38;1.40;;;29.40;99.90;;;;;;4936832;29;20647;-72
2023/09/11 14:46:32;;;;;;;4.05;1.70;;;29.50;99.90;;;;;;4936579;29;20600;-72
2023/09/11 14:48:59;;;;;;;2.53;1.60;;;29.60;99.90;;;;;;4929374;29;20662;-73
2023/09/11 14:51:26;;;;;;;2.63;1.70;;;29.50;99.90;;;;;;4926518;29;20588;-72
2023/09/11 14:53:53;;;;;;;4.22;1.70;;;29.60;99.90;;;;;;4926831;29;20247;-72
2023/09/11 14:56:20;;;;;;;1.77;1.55;;;29.50;99.90;;;;;;4925065;29;20202;-74
2023/09/11 14:58:46;;;;;;;1.98;1.67;;;29.50;99.90;;;;;;4929416;29;20236;-72
2023/09/11 15:01:13;;;;;;;2.33;1.60;;;29.40;99.90;;;;;;4938992;28;20323;-69
2023/09/11 15:03:42;;;;;;;3.45;1.90;;;29.40;99.90;;;;;;4953643;29;20246;-69
2023/09/11 15:06:08;;;;;;;4.20;2.20;;;29.30;99.90;;;;;;4953790;29;20623;-69
2023/09/11 15:08:35;;;;;;;3.65;2.20;;;29.10;99.90;;;;;;4953340;29;20282;-72
2023/09/11 15:11:03;;;;;;;3.33;1.83;;;29.10;99.90;;;;;;4929464;29;20296;-69
2023/09/11 15:13:30;;;;;;;4.60;2.10;;;29.00;99.90;;;;;;4917458;29;20209;-69
2023/09/11 15:15:58;;;;;;;3.38;2.47;;;29.00;99.90;;;;;;4929110;28;20216;-68
2023/09/11 15:18:25;;;;;;;4.95;2.10;;;28.90;99.90;;;;;;4925445;29;20247;-73
2023/09/11 15:20:53;;;;;;;4.07;2.63;;;29.00;99.90;;;;;;4923453;29;20675;-70
2023/09/11 15:23:20;;;;;;;5.30;2.83;;;28.90;99.90;;;;;;4924414;29;20328;-71
2023/09/11 15:25:47;;;;;;;4.63;2.63;;;28.80;99.90;;;;;;4922424;29;20237;-76
2023/09/11 15:28:14;;;;;;;3.38;2.47;;;28.60;99.90;;;;;;4915993;29;20269;-77
2023/09/11 15:30:41;;;;;;;5.85;2.97;;;28.60;99.90;;;;;;4918871;29;20248;-77
2023/09/11 15:33:09;;;;;;;3.55;2.80;;;28.60;99.90;;;;;;4935683;29;20681;-76
2023/09/11 15:36:02;;;;;;;4.63;2.72;;;28.60;99.90;;;;;;4935542;29;20255;-76
2023/09/11 15:38:29;;;;;;;4.53;2.80;;;28.40;99.90;;;;;;4935470;29;20551;-76
2023/09/11 15:41:02;;;;;;;3.67;2.40;;;28.40;99.90;;;;;;4935991;29;20244;-78
2023/09/11 15:43:33;;;;;;;4.50;2.58;;;28.40;99.90;;;;;;4935694;29;20296;-77
2023/09/11 15:46:01;;;;;;;3.58;2.40;;;28.50;99.90;;;;;;4935637;29;20223;-76
2023/09/11 15:48:31;;;;;;;2.63;2.00;;;28.50;99.90;;;;;;4935561;29;20331;-77
2023/09/11 15:50:59;;;;;;;3.75;2.40;;;28.50;99.90;;;;;;4935531;29;20676;-77
2023/09/11 15:53:27;;;;;;;4.72;2.47;;;28.40;99.90;;;;;;4935555;29;20263;-73
2023/09/11 15:55:55;;;;;;;5.13;2.72;;;28.40;99.90;;;;;;4935307;29;20300;-76
2023/09/11 15:58:22;;;;;;;5.45;2.70;;;28.40;99.90;;;;;;4935471;29;20251;-76
2023/09/11 16:00:49;;;;;;;5.30;2.33;;;28.50;99.90;;;;;;4935263;29;20244;-77
2023/09/11 16:03:16;;;;;;;6.78;2.30;;;28.30;99.90;;;;;;4935203;29;20296;-77
2023/09/11 16:05:43;;;;;;;4.00;2.90;;;28.30;99.90;;;;;;4935754;29;20242;-77
2023/09/11 16:08:11;;;;;;;4.43;2.50;;;28.40;99.90;;;;;;4935393;29;20328;-77
2023/09/11 16:10:40;;;;;;;4.68;2.80;;;28.30;99.90;;;;;;4935129;29;20660;-74
2023/09/11 16:13:07;;;;;;;4.22;2.95;;;28.20;99.90;;;;;;4935758;29;20311;-75
2023/09/11 16:15:37;;;;;;;4.75;2.50;;;28.20;99.90;;;;;;4939077;29;20244;-77
2023/09/11 16:18:04;;;;;;;3.50;2.60;;;28.10;99.90;;;;;;4939016;29;20247;-75
2023/09/11 16:20:35;;;;;;;5.88;3.03;;;28.00;99.90;;;;;;4939512;29;20240;-71
2023/09/11 16:23:03;;;;;;;4.53;3.08;;;27.80;99.90;;;;;;4939021;29;20228;-74
2023/09/11 16:25:31;;;;;;;5.32;3.40;;;27.40;99.90;;;;;;4939258;29;20247;-73
2023/09/11 16:28:00;;;;;;;7.05;4.32;;;27.50;99.90;;;;;;4938562;29;20208;-75
2023/09/11 16:30:27;;;;;;;10.48;4.30;;;27.50;99.90;;;;;;4938248;29;20244;-72
2023/09/11 16:32:55;;;;;;;7.85;4.10;;;27.10;99.90;;;;;;4938977;29;20765;-77
2023/09/11 16:35:23;;;;;;;6.75;3.97;;;27.10;99.90;;;;;;4938742;29;20219;-76
2023/09/11 16:37:50;;;;;;;5.75;4.50;;;26.80;99.90;;;;;;4938917;29;20209;-73
2023/09/11 16:40:17;;;;;;;5.95;4.43;;;26.50;99.90;;;;;;4938873;29;20629;-73
2023/09/11 16:42:47;;;;;;;7.75;4.10;;;26.30;99.90;;;;;;4938192;29;20323;-72
2023/09/11 16:45:16;;;;;;;7.53;3.90;;;26.30;99.90;;;;;;4938732;29;20231;-72
2023/09/11 16:47:43;;;;;;;6.72;3.88;;;26.30;99.90;;;;;;4938513;29;20240;-72
2023/09/11 16:50:14;;;;;;;6.38;3.88;;;26.20;99.90;;;;;;4938714;29;20240;-72
2023/09/11 16:52:41;;;;;;;6.82;3.75;;;26.20;99.90;;;;;;4938343;29;20353;-72
2023/09/11 16:55:09;;;;;;;5.30;3.83;;;26.20;99.90;;;;;;4938546;29;20248;-72
2023/09/11 16:57:36;;;;;;;6.32;4.03;;;26.30;99.90;;;;;;4938432;29;20303;-72
2023/09/11 17:00:05;;;;;;;7.25;4.15;;;26.40;99.90;;;;;;4938244;29;20668;-74
2023/09/11 17:02:36;;;;;;;7.88;4.00;;;26.40;99.90;;;;;;4937998;29;20233;-71
2023/09/11 17:05:07;;;;;;;5.22;3.70;;;26.50;99.90;;;;;;4938120;29;20233;-72
2023/09/11 17:07:34;;;;;;;6.20;4.13;;;26.60;99.90;;;;;;4938240;29;20205;-72
2023/09/11 17:10:02;;;;;;;9.10;4.55;;;26.60;99.90;;;;;;4938038;29;20283;-71
2023/09/11 17:12:29;;;;;;;8.60;4.80;;;26.40;99.90;;;;;;4938239;29;20244;-70
2023/09/11 17:14:56;;;;;;;8.40;4.32;;;26.30;99.90;;;;;;4938470;29;20239;-70
2023/09/11 17:17:23;;;;;;;8.77;4.20;;;26.30;99.90;;;;;;4936644;29;20292;-69
2023/09/11 17:19:53;;;;;;;8.20;4.90;;;26.20;99.90;;;;;;4939966;29;20240;-69
2023/09/11 17:22:20;;;;;;;6.38;4.60;;;25.90;99.90;;;;;;4937245;29;20233;-71
2023/09/11 17:24:47;;;;;;;8.55;4.88;;;25.80;99.90;;;;;;4937425;29;20571;-71
2023/09/11 17:27:14;;;;;;;8.65;5.10;;;25.50;99.90;;;;;;4937700;29;20281;-71
2023/09/11 17:29:41;;;;;;;7.88;5.25;;;25.30;99.90;;;;;;4938143;29;20323;-70
2023/09/11 17:32:12;;;;;;;8.73;4.97;;;24.90;99.90;;;;;;4937575;29;20288;-71
2023/09/11 17:34:39;;;;;;;8.77;4.85;;;24.70;99.90;;;;;;4937521;29;20675;-71
2023/09/11 17:37:07;;;;;;;8.07;4.75;;;24.50;99.90;;;;;;4937429;29;20236;-70
2023/09/11 17:39:34;;;;;;;9.68;5.35;;;24.30;99.90;;;;;;4937728;29;20255;-71
2023/09/11 17:42:01;;;;;;;9.02;5.63;;;24.40;99.90;;;;;;4937770;29;20267;-71
2023/09/11 17:44:28;;;;;;;8.93;5.45;;;24.40;99.90;;;;;;4937704;29;20299;-70
2023/09/11 17:46:55;;;;;;;10.18;5.65;;;24.30;99.90;;;;;;4937486;29;20248;-70
2023/09/11 17:49:22;;;;;;;9.32;5.18;;;24.10;99.90;;;;;;4937569;29;20283;-71
2023/09/11 17:51:50;;;;;;;10.15;5.40;;;24.00;99.90;;;;;;4937476;29;20264;-70
2023/09/11 17:54:18;;;;;;;10.05;6.20;;;24.00;99.90;;;;;;4937783;29;20212;-70
2023/09/11 17:56:45;;;;;;;10.65;6.35;;;23.70;99.90;;;;;;4937482;29;20217;-70
2023/09/11 17:59:12;;;;;;;11.18;6.07;;;23.60;99.90;;;;;;4937192;29;20272;-70
2023/09/11 18:01:39;;;;;;;12.48;6.00;;;23.50;99.90;;;;;;4936907;29;20264;-70
2023/09/11 18:04:08;;;;;;;11.00;6.47;;;23.40;99.90;;;;;;4936942;29;20291;-70
2023/09/11 18:06:35;;;;;;;8.10;6.25;;;23.40;99.90;;;;;;4937086;29;20223;-70
2023/09/11 18:09:02;;;;;;;15.18;6.85;;;23.40;99.90;;;;;;4937024;29;20275;-70
2023/09/11 18:11:31;;;;;;;14.57;6.82;;;23.40;99.90;;;;;;4937014;29;20549;-70
2023/09/11 18:13:58;;;;;;;10.50;7.10;;;23.30;99.90;;;;;;4936812;29;20264;-70
2023/09/11 18:16:24;;;;;;;12.32;7.07;;;23.50;99.90;;;;;;4936786;29;20684;-71
2023/09/11 18:18:51;;;;;;;11.73;6.85;;;23.60;99.90;;;;;;4936720;29;20629;-71
2023/09/11 18:21:18;;;;;;;9.70;6.78;;;23.60;99.90;;;;;;4937141;29;20264;-70
2023/09/11 18:23:45;;;;;;;11.88;6.93;;;23.40;99.90;;;;;;4936894;29;20251;-71
2023/09/11 18:26:12;;;;;;;12.75;7.78;;;23.20;99.90;;;;;;4936790;29;20299;-70
2023/09/11 18:28:40;;;;;;;12.43;6.88;;;23.30;99.90;;;;;;4936505;29;20319;-71
2023/09/11 18:31:07;;;;;;;10.18;6.60;;;23.10;99.90;;;;;;4936449;29;20685;-70
2023/09/11 18:33:34;;;;;;;10.75;7.25;;;22.80;99.90;;;;;;4927543;29;20228;-70
2023/09/11 18:36:01;;;;;;;13.60;7.13;;;22.70;99.90;;;;;;4924975;29;20246;-70
2023/09/11 18:38:30;;;;;;;10.85;7.32;;;22.80;99.90;;;;;;4927905;29;20295;-70
2023/09/11 18:40:57;;;;;;;11.45;7.03;;;22.90;99.90;;;;;;4926851;29;20208;-70
2023/09/11 18:43:23;;;;;;;11.98;6.93;;;23.10;99.90;;;;;;4927471;29;20236;-70
2023/09/11 18:45:52;;;;;;;13.43;6.70;;;23.10;99.90;;;;;;4925259;29;20245;-70
2023/09/11 18:48:19;;;;;;;14.13;7.72;;;23.10;99.90;;;;;;4925962;29;20243;-71
2023/09/11 18:50:46;;;;;;;10.70;6.75;;;23.10;99.90;;;;;;4930095;29;20647;-71
2023/09/11 18:53:12;;;;;;;13.60;7.57;;;23.10;99.90;;;;;;4936010;29;20267;-70
2023/09/11 18:55:39;;;;;;;13.80;7.47;;;23.20;99.90;;;;;;4936120;29;20300;-70
2023/09/11 18:58:06;;;;;;;12.93;7.32;;;23.20;99.90;;;;;;4936497;29;20295;-70
2023/09/11 19:00:33;;;;;;;10.52;6.88;;;23.20;99.90;;;;;;4935915;29;20315;-70
2023/09/11 19:03:01;;;;;;;10.55;7.10;;;23.20;99.90;;;;;;4936320;29;20260;-71
2023/09/11 19:05:28;;;;;;;11.13;6.43;;;23.20;99.90;;;;;;4936181;29;20686;-70
2023/09/11 19:07:55;;;;;;;10.43;7.38;;;23.30;99.90;;;;;;4926526;29;20296;-70
2023/09/11 19:10:22;;;;;;;9.68;6.13;;;23.20;99.90;;;;;;4916845;29;20330;-70
2023/09/11 19:12:49;;;;;;;9.02;6.00;;;23.30;99.90;;;;;;4917048;29;20265;-70
2023/09/11 19:15:16;;;;;;;10.60;5.60;;;23.40;99.90;;;;;;4916867;29;20245;-70
2023/09/11 19:17:44;;;;;;;8.88;4.80;;;23.40;99.90;;;;;;4917114;29;20669;-69
2023/09/11 19:20:13;;;;;;;5.57;3.95;;;23.50;99.90;;;;;;4916940;29;20270;-69
2023/09/11 19:22:40;;;;;;;6.00;3.63;;;23.40;99.90;;;;;;4916616;29;20268;-70
2023/09/11 19:25:07;;;;;;;4.43;3.40;;;23.40;99.90;;;;;;4916913;29;20320;-69
2023/09/11 19:27:36;;;;;;;3.88;3.28;;;23.40;99.90;;;;;;4916844;29;20256;-69
2023/09/11 19:30:04;;;;;;;4.47;3.40;;;23.40;99.90;;;;;;4916615;29;20277;-69
2023/09/11 19:32:31;;;;;;;6.75;2.67;;;23.30;99.90;;;;;;4916726;29;20289;-69
2023/09/11 19:34:58;;;;;;;8.35;5.05;;;23.40;99.90;;;;;;4916712;29;20217;-69
2023/09/11 19:37:26;;;;;;;5.88;3.30;;;23.40;99.90;;;;;;4916797;29;20237;-69
2023/09/11 19:39:53;;;;;;;4.72;2.70;;;23.40;99.90;;;;;;4916751;29;20222;-69
2023/09/11 19:42:20;;;;;;;4.43;3.10;;;23.40;99.90;;;;;;4916794;29;20319;-70
2023/09/11 19:44:47;;;;;;;3.38;2.47;;;23.30;99.90;;;;;;4916839;29;20728;-69
2023/09/11 19:47:14;;;;;;;3.15;2.45;;;23.30;99.90;;;;;;4916507;29;20245;-70
2023/09/11 19:49:41;;;;;;;3.10;2.53;;;23.20;99.90;;;;;;4916256;29;20270;-69
2023/09/11 19:52:09;;;;;;;4.47;2.78;;;23.30;99.90;;;;;;4916291;29;20645;-69
2023/09/11 19:54:38;;;;;;;4.25;2.63;;;23.30;99.90;;;;;;4916587;29;20210;-70
2023/09/11 19:57:05;;;;;;;4.72;2.80;;;23.30;99.90;;;;;;4916802;29;20232;-70
2023/09/11 19:59:33;;;;;;;4.95;3.25;;;23.30;99.90;;;;;;4916036;29;20625;-70
2023/09/11 20:02:00;;;;;;;3.80;2.63;;;23.30;99.90;;;;;;4916348;29;20265;-69
2023/09/11 20:04:26;;;;;;;6.13;2.58;;;23.30;99.90;;;;;;4916726;29;20245;-70
2023/09/11 20:06:54;;;;;;;4.25;3.25;;;23.30;99.90;;;;;;4916568;29;20300;-69
2023/09/11 20:09:21;;;;;;;5.35;3.50;;;23.40;99.90;;;;;;4916305;29;20320;-69
2023/09/11 20:11:49;;;;;;;7.07;2.88;;;23.40;99.90;;;;;;4916432;29;20239;-69
2023/09/11 20:14:16;;;;;;;6.15;3.40;;;23.40;99.90;;;;;;4916584;29;20206;-71
2023/09/11 20:16:43;;;;;;;5.53;3.20;;;23.30;99.90;;;;;;4916517;29;20248;-69
2023/09/11 20:19:09;;;;;;;5.00;3.08;;;23.30;99.90;;;;;;4916122;29;20732;-69
2023/09/11 20:21:36;;;;;;;5.07;2.70;;;23.40;99.90;;;;;;4916078;29;20283;-70
2023/09/11 20:24:04;;;;;;;6.35;3.65;;;23.30;99.90;;;;;;4916152;29;20256;-69
2023/09/11 20:26:30;;;;;;;4.97;2.95;;;23.20;99.90;;;;;;4915894;29;20245;-69
2023/09/11 20:28:59;;;;;;;8.00;3.47;;;23.20;99.90;;;;;;4915819;29;20618;-69
2023/09/11 20:31:26;;;;;;;7.35;3.40;;;23.20;99.90;;;;;;4915880;29;20268;-70
2023/09/11 20:33:52;;;;;;;4.55;2.72;;;23.20;99.90;;;;;;4916426;29;20300;-71
2023/09/11 20:36:20;;;;;;;6.07;3.42;;;23.20;99.90;;;;;;4916669;29;20780;-69
2023/09/11 20:38:50;;;;;;;6.90;3.30;;;23.10;99.90;;;;;;4916802;29;20300;-70
2023/09/11 20:41:17;;;;;;;6.25;3.83;;;23.10;99.90;;;;;;4916079;29;20265;-70
2023/09/11 20:43:44;;;;;;;5.80;3.28;;;23.10;99.90;;;;;;4916188;29;20252;-69
2023/09/11 20:46:12;;;;;;;5.85;3.80;;;23.10;99.90;;;;;;4932397;29;20308;-69
2023/09/11 20:48:40;;;;;;;6.00;3.95;;;23.10;99.90;;;;;;4934920;29;20244;-69
2023/09/11 20:51:09;;;;;;;7.18;3.58;;;23.10;99.90;;;;;;4934883;29;20755;-69
2023/09/11 20:53:37;;;;;;;5.68;3.50;;;23.10;99.90;;;;;;4934805;29;20664;-69
2023/09/11 20:56:04;;;;;;;6.75;3.20;;;23.00;99.90;;;;;;4929372;29;20240;-71
2023/09/11 20:58:31;;;;;;;5.22;3.70;;;22.90;99.90;;;;;;4924340;29;20229;-70
2023/09/11 21:01:03;;;;;;;5.53;3.28;;;22.90;99.90;;;;;;4928135;29;20247;-70
2023/09/11 21:03:32;;;;;;;6.28;3.78;;;22.90;99.90;;;;;;4929316;29;20244;-69
2023/09/11 21:05:59;;;;;;;8.02;4.72;;;23.10;99.90;;;;;;4927849;29;20293;-69
2023/09/11 21:08:26;;;;;;;7.03;3.78;;;23.20;99.90;;;;;;4927144;29;20241;-69
2023/09/11 21:10:53;;;;;;;5.07;3.97;;;23.20;99.90;;;;;;4938077;29;20276;-69
